Time;durP1;ratioP1;P1;durP2;ratioP2;P2;SDS_P1;SDS_P2;PMS_P1;PMS_P2;Temp;Humidity;BMP_temperature;BMP_pressure;BME280_temperature;BME280_humidity;BME280_pressure;Samples;Min_cycle;Max_cycle;Signal;HPM_P1;HPM_P2
2023/04/14 00:02:00;;;;;;;7.28;4.13;;;5.80;99.90;;;4.48;93.61;100573.84;4930205;28;20044;-81
2023/04/14 00:04:26;;;;;;;6.47;3.15;;;5.80;99.90;;;4.50;94.09;100571.19;4974310;28;20038;-81
2023/04/14 00:06:57;;;;;;;7.43;3.67;;;5.80;99.90;;;4.52;94.14;100566.81;4962844;28;20033;-81
2023/04/14 00:09:23;;;;;;;8.23;2.97;;;5.80;99.90;;;4.54;94.00;100565.00;4966608;28;20120;-81
2023/04/14 00:11:49;;;;;;;13.25;3.97;;;5.80;99.90;;;4.56;93.91;100571.06;4959238;28;20433;-80
2023/04/14 00:14:15;;;;;;;10.80;4.55;;;5.90;99.90;;;4.59;94.03;100576.19;4994315;28;20489;-81
2023/04/14 00:16:41;;;;;;;8.85;3.95;;;5.90;99.90;;;4.59;95.20;100575.34;4961100;28;20041;-80
2023/04/14 00:19:17;;;;;;;6.60;3.70;;;5.90;99.90;;;4.59;96.60;100576.19;4945021;28;20560;-81
2023/04/14 00:21:42;;;;;;;10.68;3.67;;;5.90;99.90;;;4.63;97.67;100577.81;4958001;28;20041;-79
2023/04/14 00:24:09;;;;;;;5.78;3.25;;;6.00;99.90;;;4.63;98.06;100570.00;4968783;28;20469;-82
2023/04/14 00:26:35;;;;;;;6.70;3.60;;;6.00;99.90;;;4.59;97.56;100570.13;4957317;28;20036;-81
2023/04/14 00:29:06;;;;;;;8.60;3.67;;;5.90;99.90;;;4.57;96.46;100572.75;4980453;28;20045;-81
2023/04/14 00:31:31;;;;;;;4.60;3.03;;;5.80;99.90;;;4.35;96.23;100572.41;4958185;28;20074;-79
2023/04/14 00:33:57;;;;;;;8.43;3.97;;;5.70;99.90;;;4.21;96.25;100574.47;4965287;28;20093;-80
2023/04/14 00:36:23;;;;;;;12.95;4.60;;;5.70;99.90;;;4.20;97.44;100568.41;4939859;28;20483;-80
2023/04/14 00:38:49;;;;;;;8.52;4.18;;;5.70;99.90;;;4.27;97.45;100574.34;4926222;28;20073;-80
2023/04/14 00:41:15;;;;;;;8.90;4.50;;;5.70;99.90;;;4.27;97.95;100575.19;4954245;28;20624;-81
2023/04/14 00:43:51;;;;;;;9.32;4.63;;;5.70;99.90;;;4.22;99.44;100576.19;4969975;28;20118;-81
2023/04/14 00:46:17;;;;;;;;;;;5.70;99.90;;;4.34;100.00;100578.50;4946425;28;20061;-81
2023/04/14 00:48:46;;;;;;;7.65;3.35;;;5.70;99.90;;;4.39;100.00;100579.28;4980109;28;19925;-80
2023/04/14 00:51:15;;;;;;;10.63;4.30;;;5.80;99.90;;;4.47;100.00;100579.06;4942152;28;20043;-80
2023/04/14 00:53:41;;;;;;;9.88;5.15;;;5.80;99.90;;;4.54;100.00;100582.41;4908177;28;20567;-80
2023/04/14 00:56:07;;;;;;;13.13;4.68;;;5.90;99.90;;;4.57;100.00;100583.19;4955749;28;20050;-81
2023/04/14 00:58:34;;;;;;;8.07;5.00;;;6.00;99.90;;;4.65;100.00;100588.22;4927237;28;20045;-80
2023/04/14 01:01:05;;;;;;;12.85;5.47;;;6.10;99.90;;;4.71;100.00;100585.47;4985360;28;20037;-81
2023/04/14 01:03:31;;;;;;;10.77;4.60;;;6.10;99.90;;;4.71;100.00;100586.31;4957488;28;20497;-81
2023/04/14 01:05:57;;;;;;;12.23;4.20;;;6.10;99.90;;;4.82;100.00;100587.81;4973692;28;20166;-81
2023/04/14 01:08:23;;;;;;;7.03;4.40;;;6.20;99.90;;;4.90;100.00;100583.25;4949002;28;20046;-80
2023/04/14 01:11:11;;;;;;;10.13;4.50;;;6.30;99.90;;;4.99;100.00;100588.25;4931251;28;20027;-81
2023/04/14 01:14:10;;;;;;;9.75;4.57;;;6.30;99.90;;;4.97;100.00;100592.66;4966914;28;20057;-81
2023/04/14 01:16:44;;;;;;;9.23;4.63;;;6.20;99.90;;;4.82;100.00;100600.84;4975701;28;20041;-81
2023/04/14 01:19:28;;;;;;;7.05;4.53;;;6.20;99.90;;;4.77;99.75;100594.88;4961669;28;20029;-81
2023/04/14 01:22:02;;;;;;;11.23;4.63;;;6.10;99.90;;;4.73;99.06;100600.19;4943612;28;20547;-81
2023/04/14 01:24:50;;;;;;;10.20;4.75;;;6.10;99.90;;;4.71;98.43;100599.38;4961426;28;20109;-81
2023/04/14 01:28:04;;;;;;;10.40;4.45;;;6.10;99.90;;;4.75;98.73;100612.31;4980285;28;20084;-81
2023/04/14 01:30:57;;;;;;;7.78;4.20;;;6.10;99.90;;;4.78;98.45;100622.69;4973897;28;20580;-81
2023/04/14 01:33:25;;;;;;;12.43;5.00;;;6.10;99.90;;;4.82;98.19;100634.78;4935682;28;20035;-81
2023/04/14 01:36:03;;;;;;;13.95;5.05;;;6.10;99.90;;;4.85;97.99;100639.91;4940863;28;20025;-81
2023/04/14 01:38:34;;;;;;;9.43;5.00;;;6.20;99.90;;;4.91;98.00;100634.53;4971216;28;20065;-81
2023/04/14 01:41:08;;;;;;;7.47;4.07;;;6.20;99.90;;;4.94;98.47;100632.69;4968051;28;20664;-81
2023/04/14 01:43:41;;;;;;;9.93;4.35;;;6.30;99.90;;;4.96;99.58;100637.03;4966978;28;20048;-81
2023/04/14 01:46:12;;;;;;;10.93;4.13;;;6.30;99.90;;;5.04;100.00;100633.34;4944499;28;20136;-81
2023/04/14 01:48:40;;;;;;;11.23;4.00;;;6.40;99.90;;;5.09;100.00;100621.00;4951061;28;20083;-81
2023/04/14 01:51:15;;;;;;;6.85;3.75;;;6.40;99.90;;;5.12;100.00;100613.13;4951354;28;20042;-81
2023/04/14 01:53:42;;;;;;;9.35;3.67;;;6.40;99.90;;;5.03;100.00;100608.16;4900128;28;20043;-80
2023/04/14 01:56:10;;;;;;;9.65;4.30;;;6.50;99.90;;;5.11;100.00;100615.75;4941269;28;20034;-82
2023/04/14 01:58:42;;;;;;;8.80;3.78;;;6.50;99.90;;;5.18;100.00;100626.91;4939750;28;20038;-81
2023/04/14 02:01:08;;;;;;;9.43;4.20;;;6.50;99.90;;;5.23;100.00;100625.03;4928222;28;20422;-81
2023/04/14 02:03:36;;;;;;;8.20;4.63;;;6.60;99.90;;;5.28;100.00;100628.38;4951936;28;20037;-81
2023/04/14 02:06:13;;;;;;;10.65;4.55;;;6.60;99.90;;;5.22;100.00;100629.38;4949385;28;20092;-80
2023/04/14 02:08:41;;;;;;;10.50;4.53;;;6.60;99.90;;;5.18;100.00;100621.69;4947771;28;20041;-81
2023/04/14 02:11:13;;;;;;;9.40;4.70;;;6.50;99.90;;;5.20;100.00;100622.50;4914938;28;20041;-81
2023/04/14 02:13:42;;;;;;;9.48;4.97;;;6.60;99.90;;;5.17;100.00;100625.19;4967851;28;20071;-81
2023/04/14 02:16:10;;;;;;;12.32;5.22;;;6.60;99.90;;;5.29;100.00;100632.69;4958096;28;20117;-81
2023/04/14 02:18:41;;;;;;;10.98;5.05;;;6.60;99.90;;;5.33;100.00;100631.72;4921816;28;20053;-81
2023/04/14 02:21:08;;;;;;;15.07;5.75;;;6.60;99.90;;;5.27;100.00;100634.47;4979460;28;20041;-81
2023/04/14 02:23:34;;;;;;;16.60;5.57;;;6.60;99.90;;;5.17;100.00;100630.44;4958227;28;20066;-81
2023/04/14 02:26:14;;;;;;;11.40;5.50;;;6.60;99.90;;;5.12;100.00;100625.31;4931743;28;20046;-81
2023/04/14 02:28:57;;;;;;;9.27;5.43;;;6.60;99.90;;;5.11;100.00;100623.59;4940058;28;20049;-80
2023/04/14 02:31:29;;;;;;;7.70;5.22;;;6.60;99.90;;;5.19;100.00;100616.44;4947090;28;20506;-81
2023/04/14 02:33:56;;;;;;;10.38;5.28;;;6.60;99.90;;;5.25;100.00;100634.53;4980129;28;20037;-81
2023/04/14 02:36:52;;;;;;;16.40;5.45;;;6.60;99.90;;;5.20;100.00;100632.94;4971951;28;20049;-80
2023/04/14 02:39:31;;;;;;;8.35;5.30;;;6.70;99.90;;;5.31;100.00;100638.72;4956823;28;20467;-81
2023/04/14 02:42:09;;;;;;;10.80;6.10;;;6.70;99.90;;;5.39;100.00;100642.00;4950658;28;20122;-81
2023/04/14 02:44:41;;;;;;;13.55;7.07;;;6.70;99.90;;;5.43;100.00;100633.19;4956907;28;20042;-81
2023/04/14 02:47:22;;;;;;;15.32;7.20;;;6.80;99.90;;;5.51;100.00;100646.06;4958256;28;20621;-81
2023/04/14 02:49:55;;;;;;;13.60;8.10;;;6.80;99.90;;;5.52;100.00;100637.31;4967109;28;20626;-81
2023/04/14 02:52:27;;;;;;;14.35;7.78;;;6.80;99.90;;;5.54;100.00;100631.13;4911807;28;20041;-80
2023/04/14 02:55:05;;;;;;;12.95;8.95;;;6.90;99.90;;;5.54;100.00;100636.38;4948428;28;20494;-82
2023/04/14 02:57:36;;;;;;;16.83;9.15;;;6.90;99.90;;;5.57;100.00;100634.56;4914441;28;20431;-82
2023/04/14 03:00:05;;;;;;;21.58;9.20;;;6.90;99.90;;;5.58;100.00;100626.69;4944963;28;20112;-80
2023/04/14 03:02:31;;;;;;;15.52;8.45;;;6.90;99.90;;;5.60;100.00;100624.06;4939342;28;20061;-81
2023/04/14 03:04:59;;;;;;;13.68;8.35;;;6.90;99.90;;;5.65;100.00;100632.59;4974078;28;20120;-81
2023/04/14 03:07:33;;;;;;;16.42;8.52;;;6.90;99.90;;;5.71;100.00;100642.91;5000867;22;20048;-82
2023/04/14 03:10:00;;;;;;;14.63;8.60;;;7.00;99.90;;;5.73;100.00;100639.34;4990804;28;20071;-82
2023/04/14 03:12:35;;;;;;;18.10;8.90;;;7.00;99.90;;;5.75;100.00;100634.91;4959089;28;20115;-82
2023/04/14 03:15:02;;;;;;;18.88;9.60;;;7.00;99.90;;;5.76;100.00;100635.78;4985627;28;20053;-81
2023/04/14 03:17:29;;;;;;;16.75;9.18;;;7.00;99.90;;;5.75;99.67;100634.91;5002812;28;20037;-81
2023/04/14 03:20:04;;;;;;;17.20;10.27;;;7.00;99.90;;;5.78;99.59;100639.19;4969651;28;20063;-81
2023/04/14 03:22:35;;;;;;;16.58;9.70;;;7.00;99.90;;;5.78;98.75;100639.19;4946051;28;20528;-80
2023/04/14 03:25:11;;;;;;;19.25;11.02;;;7.00;99.90;;;5.78;99.14;100633.97;4972771;28;20044;-81
2023/04/14 03:27:39;;;;;;;21.40;13.02;;;7.00;99.90;;;5.73;98.95;100625.41;4970706;28;20100;-82
2023/04/14 03:30:12;;;;;;;20.45;12.90;;;7.00;99.90;;;5.73;99.08;100634.09;4966028;28;20029;-82
2023/04/14 03:32:40;;;;;;;23.15;13.90;;;7.00;99.90;;;5.70;99.08;100633.31;4975864;28;20051;-81
2023/04/14 03:35:13;;;;;;;26.48;14.43;;;7.00;99.90;;;5.69;99.61;100635.09;4941669;28;20083;-82
2023/04/14 03:37:40;;;;;;;22.13;13.65;;;7.00;99.90;;;5.69;99.78;100639.47;4983595;28;20567;-81
2023/04/14 03:40:09;;;;;;;20.55;13.10;;;7.00;99.90;;;5.68;99.79;100638.63;4964007;28;20034;-81
2023/04/14 03:42:43;;;;;;;23.52;13.85;;;6.90;99.90;;;5.71;99.49;100643.75;4970504;28;20037;-81
2023/04/14 03:45:10;;;;;;;25.40;14.68;;;7.00;99.90;;;5.71;99.67;100640.28;4959475;28;20506;-82
2023/04/14 03:47:36;;;;;;;24.90;16.02;;;7.00;99.90;;;5.73;100.00;100646.31;4959132;28;20136;-81
2023/04/14 03:50:11;;;;;;;26.63;15.88;;;7.00;99.90;;;5.73;100.00;100636.72;4965806;28;20064;-81
2023/04/14 03:52:40;;;;;;;31.20;17.42;;;7.10;99.90;;;5.80;100.00;100637.41;4960023;28;20390;-81
2023/04/14 03:55:11;;;;;;;34.20;18.20;;;7.10;99.90;;;5.84;100.00;100640.78;4967259;28;20441;-81
2023/04/14 03:57:40;;;;;;;31.17;19.15;;;7.20;99.90;;;5.89;100.00;100641.50;4947058;28;20090;-81
2023/04/14 04:00:08;;;;;;;36.55;19.95;;;7.20;99.90;;;5.93;100.00;100648.38;5002865;28;20041;-82
2023/04/14 04:02:35;;;;;;;37.05;20.52;;;7.20;99.90;;;5.97;100.00;100644.81;4953026;28;20108;-81
2023/04/14 04:05:08;;;;;;;35.67;20.27;;;7.30;99.90;;;6.00;100.00;100649.94;4954230;28;20041;-81
2023/04/14 04:07:35;;;;;;;35.00;21.20;;;7.30;99.90;;;6.05;100.00;100653.28;4937481;28;20042;-80
2023/04/14 04:10:12;;;;;;;33.20;20.50;;;7.30;99.90;;;6.11;100.00;100657.47;4968394;28;20099;-81
2023/04/14 04:12:42;;;;;;;36.45;21.00;;;7.40;99.90;;;6.13;100.00;100653.03;4960493;28;20028;-82
2023/04/14 04:15:10;;;;;;;30.05;19.48;;;7.40;99.90;;;6.16;100.00;100650.34;4955718;28;20064;-81
2023/04/14 04:17:37;;;;;;;34.40;21.30;;;7.40;99.90;;;6.16;100.00;100642.50;4956830;28;20026;-81
2023/04/14 04:20:10;;;;;;;37.55;23.17;;;7.40;99.90;;;6.19;100.00;100639.78;4989822;28;20098;-82
2023/04/14 04:22:43;;;;;;;38.72;22.35;;;7.50;99.90;;;6.23;100.00;100643.19;4975556;28;20399;-81
2023/04/14 04:25:10;;;;;;;39.38;24.58;;;7.50;99.90;;;6.28;100.00;100641.28;4989712;28;20069;-82
2023/04/14 04:27:37;;;;;;;41.05;24.05;;;7.50;99.90;;;6.32;100.00;100646.34;5025044;28;20037;-82
2023/04/14 04:30:09;;;;;;;45.92;25.58;;;7.60;99.90;;;6.40;100.00;100640.06;5015439;28;20017;-81
2023/04/14 04:32:39;;;;;;;43.20;27.08;;;7.60;99.90;;;6.44;100.00;100641.69;4995215;28;20042;-82
2023/04/14 04:35:06;;;;;;;41.03;25.42;;;7.70;99.90;;;6.50;100.00;100646.69;5005176;28;20476;-82
2023/04/14 04:37:42;;;;;;;41.80;28.15;;;7.70;99.90;;;6.55;100.00;100644.81;4990611;28;20045;-81
2023/04/14 04:40:09;;;;;;;48.20;27.65;;;7.80;99.90;;;6.59;100.00;100646.44;4986618;28;20029;-82
2023/04/14 04:42:42;;;;;;;42.55;26.38;;;7.80;99.90;;;6.64;100.00;100647.13;4989815;28;20637;-81
2023/04/14 04:45:09;;;;;;;51.95;27.75;;;7.90;99.90;;;6.69;100.00;100649.59;5004698;28;20037;-82
2023/04/14 04:47:35;;;;;;;44.50;26.70;;;7.90;99.90;;;6.73;100.00;100652.06;5035495;28;20456;-81
2023/04/14 04:50:00;;;;;;;44.03;27.48;;;7.90;99.90;;;6.77;100.00;100648.44;4984666;28;20073;-82
2023/04/14 04:52:26;;;;;;;42.17;25.75;;;8.00;99.90;;;6.81;100.00;100645.75;4942894;28;20402;-81
2023/04/14 04:54:57;;;;;;;49.67;29.08;;;8.00;99.90;;;6.85;100.00;100644.75;4963940;28;20044;-82
2023/04/14 04:57:23;;;;;;;41.65;27.48;;;8.10;99.90;;;6.91;100.00;100650.63;5010285;28;20120;-81
2023/04/14 04:59:48;;;;;;;44.75;28.27;;;8.10;99.90;;;6.95;100.00;100648.75;4990386;28;20397;-84
2023/04/14 05:02:14;;;;;;;43.67;27.48;;;8.20;99.90;;;7.04;100.00;100644.97;4978432;28;20120;-81
2023/04/14 05:04:40;;;;;;;47.53;26.83;;;8.20;99.90;;;7.10;100.00;100661.34;4974602;28;20037;-81
2023/04/14 05:07:06;;;;;;;47.05;29.55;;;8.30;99.90;;;7.12;100.00;100656.06;4985158;28;20129;-81
2023/04/14 05:09:34;;;;;;;43.40;28.33;;;8.30;99.90;;;7.16;100.00;100649.81;4970564;28;20048;-81
2023/04/14 05:12:02;;;;;;;53.42;30.10;;;8.40;99.90;;;7.18;100.00;100654.09;4953949;28;20057;-81
2023/04/14 05:14:28;;;;;;;52.80;30.40;;;8.40;99.90;;;7.23;100.00;100640.84;4999807;28;20021;-82
2023/04/14 05:16:54;;;;;;;45.17;28.73;;;8.40;99.90;;;7.17;100.00;100647.16;4990095;28;20029;-81
2023/04/14 05:19:19;;;;;;;49.20;29.35;;;8.40;99.90;;;7.25;100.00;100646.88;4957054;28;20033;-81
2023/04/14 05:21:45;;;;;;;42.88;28.67;;;8.50;99.90;;;7.30;100.00;100654.56;5001017;28;20122;-81
2023/04/14 05:24:11;;;;;;;46.13;29.20;;;8.50;99.90;;;7.17;100.00;100652.38;4966859;28;20540;-80
2023/04/14 05:26:41;;;;;;;44.25;27.73;;;8.50;99.90;;;7.23;100.00;100642.59;4994340;23;20124;-80
2023/04/14 05:29:07;;;;;;;49.17;28.83;;;8.50;99.90;;;7.27;100.00;100649.44;4957951;28;20112;-80
2023/04/14 05:31:33;;;;;;;44.42;28.42;;;8.60;99.90;;;7.35;100.00;100650.06;4945359;28;20496;-79
2023/04/14 05:33:59;;;;;;;49.85;29.35;;;8.60;99.90;;;7.44;100.00;100649.72;4945534;28;20038;-80
2023/04/14 05:36:26;;;;;;;47.83;29.10;;;8.70;99.90;;;7.52;100.00;100652.09;4950637;28;20041;-81
2023/04/14 05:39:01;;;;;;;45.22;27.90;;;8.70;99.90;;;7.45;100.00;100650.56;4954730;28;20042;-80
2023/04/14 05:41:27;;;;;;;47.17;30.60;;;8.70;99.90;;;7.55;100.00;100649.34;4977220;28;20082;-81
2023/04/14 05:43:53;;;;;;;43.05;27.73;;;8.80;99.90;;;7.57;100.00;100645.75;4954354;28;20030;-79
2023/04/14 05:46:19;;;;;;;44.80;26.80;;;8.80;99.90;;;7.64;100.00;100643.78;4994805;28;20187;-80
2023/04/14 05:48:44;;;;;;;39.17;25.10;;;8.90;99.90;;;7.68;100.00;100650.63;4969440;28;20045;-80
2023/04/14 05:51:13;;;;;;;42.75;26.38;;;8.90;99.90;;;7.71;100.00;100655.78;4937964;28;20045;-80
2023/04/14 05:53:39;;;;;;;41.72;24.90;;;8.90;99.90;;;7.67;100.00;100651.53;4944683;28;20078;-80
2023/04/14 05:56:05;;;;;;;42.95;25.65;;;8.90;99.90;;;7.60;100.00;100650.91;4936366;28;20119;-80
2023/04/14 05:58:30;;;;;;;38.00;25.02;;;8.90;99.90;;;7.58;100.00;100652.72;4950335;28;20453;-80
2023/04/14 06:00:56;;;;;;;39.58;26.50;;;8.90;99.90;;;7.64;100.00;100650.78;4981532;28;20033;-80
2023/04/14 06:03:22;;;;;;;41.00;26.65;;;8.90;99.90;;;7.74;100.00;100653.03;4955983;28;20033;-80
2023/04/14 06:05:56;;;;;;;46.97;27.95;;;9.00;99.90;;;7.79;100.00;100650.22;4917838;28;21503;-81
2023/04/14 06:08:21;;;;;;;47.65;28.25;;;9.00;99.90;;;7.80;100.00;100651.97;4929231;28;20054;-80
2023/04/14 06:10:47;;;;;;;46.38;28.90;;;9.10;99.90;;;7.89;100.00;100653.38;4928027;28;20090;-80
2023/04/14 06:13:15;;;;;;;47.45;29.23;;;9.10;99.90;;;7.94;100.00;100651.44;4927868;28;20438;-80
2023/04/14 06:15:45;;;;;;;50.58;30.73;;;9.10;99.90;;;7.90;100.00;100650.69;4933649;28;20036;-80
2023/04/14 06:18:11;;;;;;;45.55;30.23;;;9.10;99.90;;;7.84;100.00;100648.31;4972887;28;20123;-80
2023/04/14 06:20:37;;;;;;;53.38;31.58;;;9.20;99.90;;;7.93;100.00;100657.63;4961273;28;20101;-80
2023/04/14 06:23:03;;;;;;;56.00;31.30;;;9.20;99.90;;;7.98;100.00;100656.50;4970798;28;20038;-80
2023/04/14 06:25:29;;;;;;;47.63;31.25;;;9.20;99.90;;;7.99;100.00;100658.25;4954264;28;20033;-80
2023/04/14 06:27:57;;;;;;;50.55;31.38;;;9.20;99.90;;;7.98;100.00;100656.50;4910231;28;20049;-80
2023/04/14 06:30:24;;;;;;;50.35;30.45;;;9.30;99.90;;;8.08;100.00;100657.03;4977663;28;20042;-80
2023/04/14 06:32:52;;;;;;;48.40;30.63;;;9.30;99.90;;;8.15;100.00;100652.41;4973957;28;20109;-80
2023/04/14 06:35:18;;;;;;;49.20;31.38;;;9.30;99.90;;;8.12;100.00;100647.28;4991593;28;20032;-81
2023/04/14 06:37:44;;;;;;;51.58;30.38;;;9.30;99.90;;;8.21;100.00;100646.94;4966456;28;20037;-79
2023/04/14 06:40:10;;;;;;;46.33;31.35;;;9.40;99.90;;;8.25;100.00;100650.28;4940470;28;20116;-79
2023/04/14 06:42:44;;;;;;;50.28;31.00;;;9.40;99.90;;;8.33;99.59;100641.22;4944826;28;20034;-80
2023/04/14 06:45:10;;;;;;;50.80;30.65;;;9.50;99.90;;;8.31;99.85;100647.44;4986557;28;20037;-79
2023/04/14 06:47:36;;;;;;;46.95;28.85;;;9.50;99.90;;;8.39;99.68;100645.38;4952681;28;20030;-80
2023/04/14 06:50:02;;;;;;;46.13;29.80;;;9.50;99.90;;;8.36;99.76;100637.63;4938951;28;20045;-80
2023/04/14 06:52:37;;;;;;;42.38;28.45;;;9.60;99.90;;;8.45;100.00;100639.94;4948657;28;20038;-80
2023/04/14 06:55:03;;;;;;;45.08;28.25;;;9.60;99.90;;;8.49;99.77;100641.53;4934608;28;20045;-79
2023/04/14 06:57:29;;;;;;;51.80;30.55;;;9.70;99.90;;;8.57;100.00;100638.56;4968002;28;20115;-80
2023/04/14 07:00:03;;;;;;;53.45;29.38;;;9.70;99.90;;;8.54;100.00;100638.72;4956955;28;20042;-80
2023/04/14 07:02:28;;;;;;;46.63;29.70;;;9.80;99.90;;;8.54;100.00;100634.31;4985874;28;20442;-81
2023/04/14 07:04:54;;;;;;;47.30;28.98;;;9.70;99.90;;;8.40;100.00;100632.25;4904042;28;20123;-79
2023/04/14 07:07:20;;;;;;;48.65;28.02;;;9.70;99.90;;;8.40;100.00;100636.56;4961923;28;20026;-80
2023/04/14 07:09:46;;;;;;;48.65;30.05;;;9.70;99.90;;;8.49;100.00;100643.25;4952485;28;20057;-80
2023/04/14 07:12:19;;;;;;;55.42;33.10;;;9.80;99.90;;;8.64;100.00;100640.06;4961856;28;20046;-80
2023/04/14 07:14:50;;;;;;;51.33;32.15;;;9.80;99.90;;;8.59;100.00;100636.75;4953347;28;20426;-80
2023/04/14 07:17:25;;;;;;;54.55;31.20;;;9.90;99.90;;;8.65;100.00;100641.75;4965466;28;20037;-80
2023/04/14 07:19:51;;;;;;;46.35;29.98;;;9.90;99.90;;;8.67;100.00;100650.44;4930436;28;20038;-80
2023/04/14 07:22:17;;;;;;;61.85;32.42;;;9.90;99.90;;;8.71;100.00;100646.78;4949206;28;20469;-80
2023/04/14 07:24:43;;;;;;;43.45;28.27;;;9.90;99.90;;;8.64;100.00;100645.31;4983024;28;20175;-80
2023/04/14 07:27:13;;;;;;;45.33;28.35;;;10.00;99.90;;;8.74;100.00;100644.00;4948571;28;20152;-80
2023/04/14 07:29:40;;;;;;;48.08;29.20;;;10.00;99.90;;;8.83;100.00;100648.91;4957091;28;20042;-81
2023/04/14 07:32:07;;;;;;;43.45;28.48;;;10.10;99.90;;;8.98;100.00;100652.66;4934870;28;20037;-80
2023/04/14 07:34:33;;;;;;;44.55;27.45;;;10.20;99.90;;;9.10;99.43;100647.84;4950513;28;20064;-80
2023/04/14 07:36:59;;;;;;;41.28;25.17;;;10.30;99.90;;;9.19;98.25;100643.03;4943109;28;20129;-81
2023/04/14 07:39:31;;;;;;;37.38;22.33;;;10.40;99.90;;;9.25;96.59;100647.19;4972495;28;20036;-80
2023/04/14 07:41:57;;;;;;;32.97;20.77;;;10.40;99.90;;;9.32;95.16;100647.78;4971374;28;20029;-80
2023/04/14 07:44:23;;;;;;;33.33;21.88;;;10.40;99.90;;;9.24;94.77;100648.97;4924933;28;20045;-81
2023/04/14 07:46:49;;;;;;;36.58;23.05;;;10.40;99.90;;;9.23;94.98;100647.25;4983864;28;20038;-81
2023/04/14 07:49:15;;;;;;;38.88;25.33;;;10.50;99.90;;;9.27;94.96;100658.47;4951921;28;20594;-81
2023/04/14 07:51:48;;;;;;;40.92;24.38;;;10.50;99.90;;;9.18;95.11;100669.38;4951760;28;20030;-82
2023/04/14 07:54:15;;;;;;;40.28;24.77;;;10.50;99.90;;;9.27;95.48;100670.78;4956582;28;20046;-81
2023/04/14 07:56:41;;;;;;;40.78;24.60;;;10.50;99.90;;;9.20;95.46;100671.03;4992710;28;20091;-83
2023/04/14 07:59:07;;;;;;;37.97;25.80;;;10.50;99.90;;;9.23;94.65;100663.00;4963349;28;20037;-82
2023/04/14 08:01:38;;;;;;;34.78;23.05;;;10.40;99.90;;;9.15;93.74;100669.50;4942532;28;20032;-81
2023/04/14 08:04:04;;;;;;;39.22;25.10;;;10.40;99.90;;;9.19;93.52;100671.94;4984889;28;20048;-80
2023/04/14 08:06:30;;;;;;;37.03;23.60;;;10.40;99.90;;;9.16;93.36;100666.81;4923873;28;20046;-82
2023/04/14 08:08:56;;;;;;;37.30;23.35;;;10.40;99.90;;;9.00;92.70;100652.59;4952303;28;20472;-81
2023/04/14 08:11:22;;;;;;;41.17;25.80;;;10.30;99.90;;;8.98;92.98;100657.06;4935311;28;20042;-81
2023/04/14 08:13:52;;;;;;;39.80;25.10;;;10.30;99.90;;;9.00;93.68;100656.06;4968552;28;20022;-82
2023/04/14 08:16:20;;;;;;;36.72;21.48;;;10.30;99.90;;;9.07;93.60;100648.81;4995016;28;20025;-81
2023/04/14 08:18:46;;;;;;;38.50;25.20;;;10.30;99.90;;;9.04;93.02;100654.19;4969730;28;20026;-81
2023/04/14 08:21:12;;;;;;;38.15;24.45;;;10.20;99.90;;;9.04;93.64;100641.91;4947322;28;20069;-80
2023/04/14 08:23:38;;;;;;;38.38;24.38;;;10.30;99.90;;;9.06;93.34;100649.72;4944740;28;20042;-80
2023/04/14 08:26:13;;;;;;;38.47;23.85;;;10.30;99.90;;;9.02;93.95;100645.50;4951613;28;20640;-80
2023/04/14 08:28:39;;;;;;;33.55;21.77;;;10.20;99.90;;;8.89;93.65;100650.41;4929697;28;20422;-81
2023/04/14 08:31:05;;;;;;;36.72;22.63;;;10.20;99.90;;;8.91;93.79;100645.94;4944669;28;20045;-81
2023/04/14 08:33:32;;;;;;;31.55;22.73;;;10.20;99.90;;;8.99;94.07;100646.50;4923681;28;20464;-80
2023/04/14 08:36:01;;;;;;;29.35;20.05;;;10.20;99.90;;;8.93;93.25;100645.91;4967557;28;20030;-81
2023/04/14 08:38:28;;;;;;;32.72;21.23;;;10.10;99.90;;;8.73;93.39;100639.69;4963471;28;20026;-81
2023/04/14 08:40:55;;;;;;;34.63;21.98;;;10.00;99.90;;;8.69;93.84;100642.50;4940672;28;20046;-81
2023/04/14 08:43:22;;;;;;;36.30;22.90;;;10.00;99.90;;;8.66;94.63;100632.97;4921491;28;20042;-80
2023/04/14 08:46:00;;;;;;;33.38;20.23;;;9.90;99.90;;;8.60;96.75;100636.69;4922042;28;20043;-81
2023/04/14 08:48:34;;;;;;;35.92;23.55;;;;;;;8.68;97.27;100632.91;4924417;28;20058;-81
2023/04/14 08:51:05;;;;;;;38.25;23.45;;;10.00;99.90;;;8.64;98.04;100637.44;4994725;28;20030;-81
2023/04/14 08:53:41;;;;;;;36.78;21.35;;;9.90;99.90;;;8.52;98.61;100635.28;5001380;28;20046;-81
2023/04/14 08:56:08;;;;;;;35.33;21.20;;;9.80;99.90;;;8.38;99.70;100641.91;4959247;28;20042;-81
2023/04/14 08:58:34;;;;;;;35.90;23.48;;;9.80;99.90;;;8.40;100.00;100637.50;4941899;28;21012;-80
2023/04/14 09:01:10;;;;;;;39.53;24.02;;;9.80;99.90;;;8.43;100.00;100638.28;4939021;28;20698;-81
2023/04/14 09:03:37;;;;;;;35.80;22.90;;;9.70;99.90;;;8.27;100.00;100643.22;4940426;28;20388;-80
2023/04/14 09:06:04;;;;;;;34.75;21.48;;;9.70;99.90;;;8.31;100.00;100639.56;4957538;28;20037;-81
2023/04/14 09:08:34;;;;;;;39.78;25.02;;;9.60;99.90;;;8.36;100.00;100638.50;4966023;28;20046;-80
2023/04/14 09:11:03;;;;;;;39.80;25.63;;;9.70;99.90;;;8.36;100.00;100642.88;4978482;28;20044;-80
2023/04/14 09:13:30;;;;;;;34.35;23.35;;;9.70;99.90;;;8.36;100.00;100648.13;4940088;28;20026;-81
2023/04/14 09:16:05;;;;;;;44.55;24.77;;;9.70;99.90;;;8.32;100.00;100650.00;4976436;28;20053;-81
2023/04/14 09:18:31;;;;;;;39.10;23.95;;;9.70;99.90;;;8.34;100.00;100647.34;4967939;28;20029;-81
2023/04/14 09:20:58;;;;;;;48.42;27.90;;;9.60;99.90;;;8.40;100.00;100645.34;4967104;28;20037;-81
2023/04/14 09:23:28;;;;;;;50.20;29.80;;;9.70;99.90;;;8.40;100.00;100650.59;4945571;28;20069;-81
2023/04/14 09:25:55;;;;;;;44.38;28.73;;;9.70;99.90;;;8.39;100.00;100642.75;4973484;28;20036;-81
2023/04/14 09:28:21;;;;;;;53.20;30.50;;;9.60;99.90;;;8.35;100.00;100646.41;4995561;28;20090;-81
2023/04/14 09:30:47;;;;;;;50.22;30.13;;;9.60;99.90;;;8.34;100.00;100645.56;4977638;28;20073;-81
2023/04/14 09:33:24;;;;;;;54.10;30.42;;;9.60;99.90;;;8.31;100.00;100643.03;4967238;28;20541;-81
2023/04/14 09:35:51;;;;;;;49.38;30.10;;;9.60;99.90;;;8.21;100.00;100639.94;4945910;28;20031;-81
2023/04/14 09:38:39;;;;;;;48.13;30.50;;;9.50;99.90;;;8.24;100.00;100646.81;4972337;28;20069;-81
2023/04/14 09:41:06;;;;;;;42.08;24.88;;;;;;;8.11;100.00;100642.94;4972525;28;20434;-81
2023/04/14 09:43:35;;;;;;;50.22;30.98;;;9.40;99.90;;;8.11;100.00;100645.56;4990720;28;20048;-81
2023/04/14 09:46:17;;;;;;;43.47;27.27;;;9.40;99.90;;;8.02;100.00;100642.38;4969554;28;20446;-82
2023/04/14 09:48:55;;;;;;;47.78;30.08;;;9.40;99.90;;;8.09;100.00;100644.78;4972273;28;20064;-81
2023/04/14 09:51:32;;;;;;;50.45;30.85;;;9.40;99.90;;;8.09;100.00;100636.91;4987587;28;20034;-80
2023/04/14 09:54:03;;;;;;;;;;;9.40;99.90;;;7.98;100.00;100629.44;4961215;28;20036;-82
2023/04/14 09:56:35;;;;;;;57.15;31.02;;;9.30;99.90;;;7.91;100.00;100634.06;4982728;28;19925;-80
2023/04/14 09:59:05;;;;;;;55.92;33.03;;;9.30;99.90;;;7.99;100.00;100639.88;4945725;28;21252;-82
2023/04/14 10:01:35;;;;;;;57.28;32.30;;;9.30;99.90;;;8.02;100.00;100621.41;4968839;28;20043;-82
2023/04/14 10:04:19;;;;;;;61.40;35.53;;;9.30;99.90;;;7.92;100.00;100616.56;4959904;28;20041;-81
2023/04/14 10:06:50;;;;;;;59.80;34.00;;;9.30;99.90;;;7.94;100.00;100628.69;4940330;28;20037;-82
2023/04/14 10:09:31;;;;;;;61.63;35.15;;;9.30;99.90;;;8.01;100.00;100627.56;4976663;28;20092;-82
2023/04/14 10:12:12;;;;;;;57.65;30.75;;;9.30;99.90;;;7.99;100.00;100626.78;4965606;28;20041;-81
2023/04/14 10:14:40;;;;;;;67.28;38.50;;;9.30;99.90;;;7.94;100.00;100618.22;4980279;28;20040;-82
2023/04/14 10:17:13;;;;;;;63.38;32.60;;;9.30;99.90;;;8.05;100.00;100619.56;4988353;28;20394;-81
2023/04/14 10:19:42;;;;;;;64.20;36.28;;;9.40;99.90;;;8.10;100.00;100617.63;4972466;28;20034;-81
2023/04/14 10:22:08;;;;;;;72.93;38.05;;;9.40;99.90;;;8.12;100.00;100618.41;4971874;28;20100;-81